Time;durP1;ratioP1;P1;durP2;ratioP2;P2;SDS_P1;SDS_P2;PMS_P1;PMS_P2;Temp;Humidity;BMP_temperature;BMP_pressure;BME280_temperature;BME280_humidity;BME280_pressure;Samples;Min_cycle;Max_cycle;Signal;HPM_P1;HPM_P2
2021/09/15 00:01:11;;;;;;;13.40;11.90;;;;;;;19.78;94.46;100102.69;5080068;28;20044;-51
2021/09/15 00:03:37;;;;;;;15.52;11.50;;;;;;;19.79;94.14;100107.91;5070987;28;20596;-52
2021/09/15 00:06:05;;;;;;;12.88;11.68;;;;;;;19.66;94.05;100090.34;5071852;28;20044;-51
2021/09/15 00:08:32;;;;;;;13.95;12.10;;;;;;;19.74;94.21;100112.84;5072275;28;20067;-53
2021/09/15 00:11:00;;;;;;;14.25;11.73;;;;;;;19.71;94.21;100106.88;5078313;28;20055;-53
2021/09/15 00:13:28;;;;;;;13.68;11.70;;;;;;;19.69;94.08;100114.22;5077583;28;20147;-52
2021/09/15 00:15:55;;;;;;;12.23;11.02;;;;;;;19.66;94.57;100106.47;5074357;28;20154;-52
2021/09/15 00:18:21;;;;;;;12.88;11.18;;;;;;;19.64;94.37;100111.97;5077139;28;20040;-52
2021/09/15 00:20:48;;;;;;;18.30;12.02;;;;;;;19.59;94.50;100111.53;5073621;28;20047;-52
2021/09/15 00:23:15;;;;;;;13.02;11.18;;;;;;;19.53;94.39;100109.38;5069677;28;20048;-52
2021/09/15 00:25:41;;;;;;;12.80;10.68;;;;;;;19.50;94.70;100107.84;5076609;28;20076;-52
2021/09/15 00:28:08;;;;;;;12.95;11.45;;;;;;;19.35;95.06;100078.78;5079767;28;20056;-50
2021/09/15 00:30:34;;;;;;;12.45;10.38;;;;;;;19.45;95.04;100095.75;5077106;28;20047;-50
2021/09/15 00:33:01;;;;;;;13.85;11.25;;;;;;;19.40;95.34;100095.31;5073542;28;20055;-51
2021/09/15 00:35:27;;;;;;;14.95;10.98;;;;;;;19.40;95.41;100097.97;5071298;28;20052;-52
2021/09/15 00:37:53;;;;;;;12.63;10.52;;;;;;;19.36;95.08;100085.84;5073073;28;20045;-52
2021/09/15 00:40:20;;;;;;;12.57;11.25;;;;;;;19.35;95.82;100090.34;5077951;28;20052;-51
2021/09/15 00:42:47;;;;;;;12.57;11.30;;;;;;;19.36;95.93;100086.66;5073205;28;20048;-52
2021/09/15 00:45:13;;;;;;;12.55;11.23;;;;;;;19.35;96.10;100086.81;5081521;28;20071;-52
2021/09/15 00:47:40;;;;;;;13.00;11.20;;;;;;;19.31;96.09;100088.91;5075901;28;20576;-51
2021/09/15 00:50:07;;;;;;;13.13;11.18;;;;;;;19.25;96.50;100074.19;5079108;28;20062;-51
2021/09/15 00:52:34;;;;;;;13.13;11.15;;;;;;;19.22;96.62;100073.59;5078551;28;20048;-53
2021/09/15 00:55:01;;;;;;;14.82;11.52;;;;;;;19.19;97.29;100068.53;5074150;28;20105;-54
2021/09/15 00:57:28;;;;;;;13.38;11.98;;;;;;;19.17;97.32;100070.50;5076207;28;20044;-51
2021/09/15 00:59:54;;;;;;;13.10;11.63;;;;;;;19.13;97.26;100069.91;5080678;28;20044;-52
2021/09/15 01:02:21;;;;;;;21.73;11.43;;;;;;;19.18;98.63;100065.00;5080485;28;20047;-52
2021/09/15 01:04:47;;;;;;;13.90;12.10;;;;;;;19.20;98.76;100062.19;5077121;28;20703;-53
2021/09/15 01:07:14;;;;;;;13.82;11.98;;;;;;;19.21;98.55;100062.00;5078313;28;20035;-53
2021/09/15 01:09:41;;;;;;;14.82;11.65;;;;;;;19.23;98.66;100065.41;5077174;28;20052;-52
2021/09/15 01:12:10;;;;;;;15.30;12.43;;;;;;;19.20;98.18;100064.88;5080298;28;20508;-53
2021/09/15 01:14:39;;;;;;;13.48;11.52;;;;;;;19.15;98.21;100059.88;5079389;28;20486;-50
2021/09/15 01:17:06;;;;;;;14.18;12.07;;;;;;;19.14;98.56;100057.34;5080749;28;20045;-52
2021/09/15 01:19:33;;;;;;;13.25;11.93;;;;;;;19.13;98.17;100056.50;5079685;28;20086;-52
2021/09/15 01:22:00;;;;;;;13.15;11.35;;;;;;;19.10;98.65;100059.44;5081414;28;20413;-51
2021/09/15 01:24:29;;;;;;;14.43;12.35;;;;;;;19.06;98.94;100057.16;5077110;28;20076;-54
2021/09/15 01:26:57;;;;;;;13.48;11.63;;;;;;;19.02;99.19;100059.28;5077382;28;20161;-52
2021/09/15 01:29:27;;;;;;;13.77;12.38;;;;;;;19.02;99.97;100064.63;5078555;28;20040;-51
2021/09/15 01:32:10;;;;;;;14.80;12.20;;;;;;;19.04;100.00;100060.00;5074521;28;20052;-51
2021/09/15 01:34:39;;;;;;;12.75;11.48;;;;;;;19.05;99.79;100061.66;5077644;28;20047;-53
2021/09/15 01:37:09;;;;;;;13.53;12.13;;;;;;;19.04;99.17;100064.50;5084184;28;20044;-52
2021/09/15 01:39:36;;;;;;;16.10;12.40;;;;;;;19.02;99.38;100056.59;5079924;28;20059;-51
2021/09/15 01:42:05;;;;;;;14.10;12.35;;;;;;;19.00;99.33;100063.06;5077934;28;20055;-52
2021/09/15 01:44:50;;;;;;;14.57;11.88;;;;;;;18.98;99.55;100060.50;5076992;28;20052;-52
2021/09/15 01:47:17;;;;;;;16.38;11.70;;;;;;;18.94;99.54;100048.34;5076182;28;20052;-53
2021/09/15 01:49:45;;;;;;;13.45;11.93;;;;;;;18.90;99.74;100041.53;5078974;28;20048;-53
2021/09/15 01:52:14;;;;;;;13.35;11.50;;;;;;;18.87;100.00;100042.69;5075737;28;20056;-51
2021/09/15 01:54:40;;;;;;;13.32;11.82;;;;;;;18.86;100.00;100035.59;5079373;28;20047;-51
2021/09/15 01:57:07;;;;;;;14.32;11.73;;;;;;;18.85;100.00;100036.59;5075176;28;20048;-51
2021/09/15 01:59:34;;;;;;;14.23;12.30;;;;;;;18.83;100.00;100035.88;5078762;28;20059;-52
2021/09/15 02:02:00;;;;;;;13.43;12.02;;;;;;;18.81;100.00;100034.28;5081112;28;20615;-52
2021/09/15 02:04:27;;;;;;;13.57;12.15;;;;;;;18.82;100.00;100038.69;5080447;28;20555;-52
2021/09/15 02:06:54;;;;;;;15.50;12.88;;;;;;;18.83;100.00;100029.66;5073986;28;20050;-51
2021/09/15 02:09:21;;;;;;;14.13;12.38;;;;;;;18.71;100.00;100018.16;5077640;28;20059;-52
2021/09/15 02:11:48;;;;;;;13.32;11.85;;;;;;;18.81;100.00;100032.47;5073761;28;20579;-51
2021/09/15 02:14:15;;;;;;;15.32;12.68;;;;;;;18.81;100.00;100028.94;5082509;28;20128;-54
2021/09/15 02:16:41;;;;;;;15.02;12.68;;;;;;;18.73;100.00;100012.66;5076777;28;20051;-53
2021/09/15 02:19:09;;;;;;;13.98;12.57;;;;;;;18.80;100.00;100025.41;5073879;28;20052;-53
2021/09/15 02:21:36;;;;;;;14.35;12.85;;;;;;;18.82;100.00;100019.91;5077751;28;20043;-53
2021/09/15 02:24:03;;;;;;;14.23;12.32;;;;;;;18.82;100.00;100028.81;5078770;28;20051;-53
2021/09/15 02:26:31;;;;;;;13.05;11.52;;;;;;;18.79;100.00;100021.00;5077287;28;20050;-53
2021/09/15 02:28:58;;;;;;;15.65;12.90;;;;;;;18.77;100.00;100024.81;5079117;28;20048;-53
2021/09/15 02:31:25;;;;;;;17.33;13.23;;;;;;;18.71;100.00;100022.69;5082599;28;20472;-51
2021/09/15 02:33:51;;;;;;;17.50;13.52;;;;;;;18.70;100.00;100029.03;5082436;28;20051;-51
2021/09/15 02:36:18;;;;;;;15.43;13.27;;;;;;;18.69;100.00;100021.97;5077824;28;20044;-52
2021/09/15 02:38:44;;;;;;;16.30;13.50;;;;;;;18.66;100.00;100019.53;5077935;28;20048;-53
2021/09/15 02:41:11;;;;;;;14.38;12.95;;;;;;;18.64;100.00;100026.84;5079806;28;20059;-51
2021/09/15 02:43:38;;;;;;;14.50;12.95;;;;;;;18.61;100.00;100025.28;5074815;28;20056;-52
2021/09/15 02:46:04;;;;;;;14.30;12.57;;;;;;;18.64;100.00;100025.03;5076682;28;20044;-53
2021/09/15 02:48:31;;;;;;;14.35;12.50;;;;;;;18.64;100.00;100025.03;5076406;28;20059;-52
2021/09/15 02:50:57;;;;;;;15.02;13.50;;;;;;;18.60;100.00;100018.22;5075243;28;20146;-52
2021/09/15 02:53:24;;;;;;;16.38;14.18;;;;;;;18.58;100.00;100015.66;5076082;28;20056;-55
2021/09/15 02:55:51;;;;;;;15.25;13.63;;;;;;;18.56;100.00;100012.25;5082473;28;20044;-53
2021/09/15 02:58:17;;;;;;;15.48;13.15;;;;;;;18.58;100.00;100017.47;5075372;28;20080;-52
2021/09/15 03:00:44;;;;;;;15.27;13.43;;;;;;;18.58;100.00;100009.41;5073560;28;20481;-52
2021/09/15 03:03:11;;;;;;;15.32;13.73;;;;;;;18.56;100.00;100006.03;5076436;28;20647;-53
2021/09/15 03:05:37;;;;;;;15.82;14.10;;;;;;;18.60;100.00;100006.63;5071824;28;20048;-53
2021/09/15 03:08:04;;;;;;;16.60;14.10;;;;;;;18.58;100.00;100012.97;5077176;28;20063;-53
2021/09/15 03:10:31;;;;;;;17.30;14.13;;;;;;;18.55;100.00;100009.72;5077901;28;20485;-52
2021/09/15 03:12:57;;;;;;;15.10;13.50;;;;;;;18.54;100.00;100014.22;5074752;28;20048;-52
2021/09/15 03:15:24;;;;;;;15.02;13.43;;;;;;;18.50;100.00;100011.94;5067116;28;20052;-53
2021/09/15 03:17:50;;;;;;;14.90;13.38;;;;;;;18.46;100.00;100011.34;5072037;28;20393;-53
2021/09/15 03:20:17;;;;;;;15.15;13.35;;;;;;;18.42;100.00;100015.25;5081560;28;20047;-52
2021/09/15 03:22:43;;;;;;;16.02;14.07;;;;;;;18.33;100.00;99993.75;5076555;28;20493;-50
2021/09/15 03:25:10;;;;;;;16.38;13.23;;;;;;;18.42;100.00;100015.25;5076331;28;20058;-52
2021/09/15 03:27:36;;;;;;;16.42;13.73;;;;;;;18.28;100.00;99988.78;5077195;28;20516;-51
2021/09/15 03:30:04;;;;;;;15.07;13.52;;;;;;;18.35;100.00;100010.56;5074297;28;20043;-53
2021/09/15 03:32:31;;;;;;;15.75;13.48;;;;;;;18.33;100.00;100013.38;5075896;28;20059;-53
2021/09/15 03:34:58;;;;;;;17.35;13.63;;;;;;;18.33;100.00;100020.56;5079072;28;20052;-53
2021/09/15 03:37:24;;;;;;;15.63;13.35;;;;;;;18.38;100.00;100011.16;5075954;28;20045;-53
2021/09/15 03:39:51;;;;;;;14.75;13.23;;;;;;;18.45;100.00;100017.66;5075002;28;20048;-53
2021/09/15 03:42:17;;;;;;;15.00;13.50;;;;;;;18.52;100.00;100016.19;5076661;28;20824;-59
2021/09/15 03:44:44;;;;;;;14.57;12.88;;;;;;;18.53;100.00;100006.31;5076192;28;20125;-52
2021/09/15 03:47:10;;;;;;;15.25;13.27;;;;;;;18.51;100.00;100009.13;5072683;28;20839;-51
2021/09/15 03:49:37;;;;;;;17.52;13.65;;;;;;;18.56;100.00;100009.59;5073926;28;20048;-52
2021/09/15 03:52:03;;;;;;;15.65;13.85;;;;;;;18.64;100.00;100006.25;5074658;28;20056;-52
2021/09/15 03:54:31;;;;;;;17.40;13.50;;;;;;;18.72;100.00;100005.59;5074251;28;20047;-51
2021/09/15 03:56:58;;;;;;;14.95;13.38;;;;;;;18.74;100.00;100000.94;5075146;28;20032;-52
2021/09/15 03:59:24;;;;;;;14.45;12.98;;;;;;;18.73;100.00;99992.03;5070326;28;20056;-52
2021/09/15 04:01:51;;;;;;;16.73;13.05;;;;;;;18.76;100.00;99990.91;5076180;28;20051;-52
2021/09/15 04:04:17;;;;;;;13.75;12.35;;;;;;;18.77;100.00;99993.47;5080509;28;20062;-52
2021/09/15 04:06:44;;;;;;;14.68;12.85;;;;;;;18.83;100.00;99998.31;5074443;28;20044;-52
2021/09/15 04:09:10;;;;;;;14.23;12.75;;;;;;;18.87;100.00;99989.03;5070660;28;20055;-52
2021/09/15 04:11:37;;;;;;;13.75;12.32;;;;;;;18.86;100.00;99984.63;5077466;28;20044;-51
2021/09/15 04:14:04;;;;;;;14.68;13.18;;;;;;;18.89;100.00;99991.53;5072822;28;20493;-52
2021/09/15 04:16:30;;;;;;;15.45;13.13;;;;;;;18.90;100.00;99993.25;5076821;28;20051;-52
2021/09/15 04:18:57;;;;;;;15.18;13.27;;;;;;;18.92;100.00;99993.97;5075541;28;20451;-51
2021/09/15 04:21:23;;;;;;;14.93;13.05;;;;;;;18.93;100.00;99990.28;5082260;28;20052;-55
2021/09/15 04:31:46;;;;;;;16.55;14.52;;;;;;;19.08;99.45;99991.63;5083499;28;20405;-53
2021/09/15 04:34:13;;;;;;;18.15;15.80;;;;;;;19.11;98.91;99994.03;5081510;28;20058;-52
2021/09/15 04:36:39;;;;;;;16.80;15.00;;;;;;;19.13;98.69;99993.91;5082862;28;20542;-51
2021/09/15 04:39:06;;;;;;;16.75;14.95;;;;;;;19.15;98.30;99987.41;5075292;28;20048;-52
2021/09/15 04:41:32;;;;;;;19.92;15.77;;;;;;;19.15;98.47;99976.69;5076706;28;20052;-52
2021/09/15 04:43:59;;;;;;;18.88;15.35;;;;;;;19.19;98.31;99990.69;5078401;28;20045;-53
2021/09/15 04:46:25;;;;;;;20.17;16.45;;;;;;;19.21;98.00;99992.22;5082890;28;20052;-53
2021/09/15 04:48:55;;;;;;;17.58;15.77;;;;;;;19.21;97.88;99992.22;5077188;28;20044;-53
2021/09/15 04:51:29;;;;;;;19.58;16.00;;;;;;;19.23;97.68;99995.63;5064898;28;20056;-52
2021/09/15 04:53:56;;;;;;;17.13;15.05;;;;;;;19.23;98.04;99995.63;5073078;28;20502;-52
2021/09/15 04:56:23;;;;;;;18.83;15.40;;;;;;;19.26;97.67;99990.00;5071209;28;20520;-54
2021/09/15 04:58:49;;;;;;;15.82;14.05;;;;;;;19.30;97.68;99992.41;5075967;28;20044;-52
2021/09/15 05:01:16;;;;;;;17.45;14.68;;;;;;;19.32;97.54;99985.91;5076200;28;20048;-52
2021/09/15 05:03:42;;;;;;;17.70;15.63;;;;;;;19.32;97.34;99982.38;5074963;28;20056;-51
2021/09/15 05:06:09;;;;;;;21.40;17.52;;;;;;;19.34;97.53;99985.78;5079921;28;20039;-51
2021/09/15 05:08:36;;;;;;;19.35;16.60;;;;;;;19.34;97.35;99981.25;5075475;28;20052;-51
2021/09/15 05:11:02;;;;;;;21.30;18.92;;;;;;;19.39;97.28;99996.94;5079222;28;20044;-52
2021/09/15 05:13:29;;;;;;;20.45;18.05;;;;;;;19.40;97.08;99991.44;5074382;28;20055;-52
2021/09/15 05:15:56;;;;;;;24.17;19.55;;;;;;;19.43;96.97;99990.31;5089532;28;20493;-52
2021/09/15 05:18:23;;;;;;;20.33;18.13;;;;;;;19.45;96.68;99999.94;5080045;28;20051;-54
2021/09/15 05:20:50;;;;;;;22.45;19.77;;;;;;;19.48;96.33;100002.34;5081661;28;20067;-51
2021/09/15 05:23:16;;;;;;;21.42;18.48;;;;;;;19.47;96.18;99997.97;5079055;28;20055;-53
2021/09/15 05:25:43;;;;;;;22.73;19.48;;;;;;;19.48;96.15;100004.19;5076250;28;20082;-51
2021/09/15 05:28:09;;;;;;;27.35;18.92;;;;;;;19.49;95.96;99995.13;5076244;28;20048;-53
2021/09/15 05:30:36;;;;;;;20.52;18.30;;;;;;;19.47;96.16;99991.75;5071677;28;20051;-52
2021/09/15 05:33:03;;;;;;;24.05;19.10;;;;;;;19.47;96.22;99992.59;5076421;28;20083;-50
2021/09/15 05:35:29;;;;;;;20.88;17.90;;;;;;;19.46;96.27;99990.88;5076500;28;20107;-52
2021/09/15 05:37:56;;;;;;;23.13;18.13;;;;;;;19.50;95.84;99989.66;5077457;28;20062;-51
2021/09/15 05:40:22;;;;;;;20.08;17.95;;;;;;;19.55;95.97;99983.84;5076240;28;20044;-50
2021/09/15 05:42:49;;;;;;;25.33;18.38;;;;;;;19.57;96.02;99998.00;5079821;28;20513;-54
2021/09/15 05:45:16;;;;;;;21.58;18.00;;;;;;;19.50;96.07;99988.81;5076182;28;20044;-53
2021/09/15 05:47:43;;;;;;;18.48;16.42;;;;;;;19.49;96.27;99990.66;5080870;28;20053;-52
2021/09/15 05:50:10;;;;;;;20.42;17.00;;;;;;;19.53;96.49;100004.63;5077172;28;21616;-53
2021/09/15 05:52:36;;;;;;;19.30;17.08;;;;;;;19.54;96.25;100000.94;5070973;28;20405;-52
2021/09/15 05:55:03;;;;;;;19.08;16.27;;;;;;;19.57;96.41;100009.59;5083096;28;20040;-53
2021/09/15 05:57:30;;;;;;;20.73;17.85;;;;;;;19.45;96.34;99991.03;5080016;28;20044;-53
2021/09/15 05:59:56;;;;;;;24.90;18.27;;;;;;;19.57;96.30;100017.66;5079400;28;20048;-52
2021/09/15 06:02:23;;;;;;;21.48;16.90;;;;;;;19.59;96.30;100013.00;5073581;28;20051;-53
2021/09/15 06:04:49;;;;;;;18.95;15.80;;;;;;;19.62;95.79;100019.94;5073447;28;20045;-53
2021/09/15 06:07:16;;;;;;;22.30;17.75;;;;;;;19.65;95.71;100014.28;5068339;28;20079;-53
2021/09/15 06:09:45;;;;;;;22.85;16.83;;;;;;;19.67;95.71;100024.91;5068001;28;20052;-52
2021/09/15 06:12:11;;;;;;;20.45;16.55;;;;;;;19.68;95.49;100022.03;5069625;28;20044;-52
2021/09/15 06:14:37;;;;;;;21.35;17.38;;;;;;;19.68;95.50;100018.50;5074379;28;20461;-53
2021/09/15 06:17:04;;;;;;;20.10;17.48;;;;;;;19.68;95.73;100029.25;5067495;28;21112;-53
2021/09/15 06:19:31;;;;;;;24.02;18.10;;;;;;;19.68;95.90;100026.56;5070806;28;20134;-53
2021/09/15 06:21:57;;;;;;;21.70;19.40;;;;;;;19.69;96.45;100036.31;5074475;28;20052;-52
2021/09/15 06:24:24;;;;;;;20.35;18.05;;;;;;;19.66;96.45;100034.78;5069218;28;20048;-52
2021/09/15 06:26:52;;;;;;;26.45;19.88;;;;;;;19.64;96.61;100042.13;5073305;28;20048;-54
2021/09/15 06:29:18;;;;;;;25.80;19.40;;;;;;;19.59;96.98;100042.53;5071550;28;20429;-52
2021/09/15 06:31:45;;;;;;;24.00;20.35;;;;;;;19.58;97.47;100030.09;5069509;28;20055;-52
2021/09/15 06:34:12;;;;;;;23.92;19.85;;;;;;;19.49;97.86;100032.75;5080318;28;20095;-57
2021/09/15 06:36:42;;;;;;;26.50;20.20;;;;;;;19.47;98.86;100045.44;5073704;28;20044;-52
2021/09/15 06:39:09;;;;;;;26.70;19.90;;;;;;;19.40;99.64;100041.59;5069180;28;20050;-54
2021/09/15 06:41:35;;;;;;;23.65;19.42;;;;;;;19.35;100.00;100042.03;5074012;28;20051;-53
2021/09/15 06:44:02;;;;;;;23.52;19.08;;;;;;;19.33;100.00;100044.00;5067506;28;20504;-54
2021/09/15 06:46:29;;;;;;;25.35;21.60;;;;;;;19.27;100.00;100040.00;5074483;28;20054;-51
2021/09/15 06:48:59;;;;;;;29.58;23.15;;;;;;;19.18;100.00;100040.00;5064645;28;20051;-52
2021/09/15 06:51:26;;;;;;;26.77;22.08;;;;;;;19.09;100.00;100041.63;5070029;28;20074;-51
2021/09/15 06:53:52;;;;;;;28.50;24.35;;;;;;;19.06;100.00;100041.88;5073650;28;20847;-51
2021/09/15 06:56:19;;;;;;;30.42;24.35;;;;;;;18.98;100.00;100047.09;5078868;28;20052;-55
2021/09/15 06:58:46;;;;;;;29.67;24.50;;;;;;;18.95;100.00;100038.47;5071594;28;22027;-51
2021/09/15 07:01:13;;;;;;;28.17;23.77;;;;;;;18.90;100.00;100047.75;5070485;28;20307;-50
2021/09/15 07:03:40;;;;;;;28.88;24.38;;;;;;;18.86;100.00;100040.13;5068193;28;20039;-54
2021/09/15 07:06:07;;;;;;;30.25;23.85;;;;;;;18.86;100.00;100042.81;5075027;28;20048;-52
2021/09/15 07:08:37;;;;;;;28.10;24.30;;;;;;;18.85;100.00;100039.28;5078680;28;20516;-52
2021/09/15 07:11:08;;;;;;;28.65;25.52;;;;;;;18.85;100.00;100041.09;5077076;28;20139;-51
2021/09/15 07:13:35;;;;;;;33.28;26.83;;;;;;;18.82;100.00;100049.41;5070510;28;20764;-51
2021/09/15 07:16:02;;;;;;;36.08;27.25;;;;;;;18.82;100.00;100044.91;5070226;28;20059;-53
2021/09/15 07:18:29;;;;;;;32.08;24.52;;;;;;;18.83;100.00;100051.97;5066232;28;20055;-51
2021/09/15 07:20:55;;;;;;;32.47;25.33;;;;;;;18.72;100.00;100033.28;5076412;28;20067;-50
2021/09/15 07:23:22;;;;;;;30.80;25.45;;;;;;;18.82;100.00;100044.91;5074164;28;20055;-51
2021/09/15 07:25:48;;;;;;;29.13;23.50;;;;;;;18.81;100.00;100051.25;5075763;28;20040;-51
2021/09/15 07:28:15;;;;;;;25.88;21.77;;;;;;;18.84;100.00;100050.13;5069812;28;20052;-52
2021/09/15 07:30:42;;;;;;;27.40;23.02;;;;;;;18.85;100.00;100050.00;5069355;28;20490;-51
2021/09/15 07:33:08;;;;;;;29.05;23.45;;;;;;;18.77;100.00;100038.22;5073526;28;20473;-51
2021/09/15 07:35:35;;;;;;;33.60;24.15;;;;;;;18.87;100.00;100048.03;5072147;28;20051;-51
2021/09/15 07:38:02;;;;;;;30.20;23.85;;;;;;;18.89;100.00;100059.47;5074570;28;20043;-49
2021/09/15 07:40:28;;;;;;;32.83;25.45;;;;;;;18.89;100.00;100055.94;5071593;28;20758;-50
2021/09/15 07:42:55;;;;;;;28.92;25.13;;;;;;;18.92;100.00;100061.03;5074508;28;20055;-50
2021/09/15 07:45:21;;;;;;;34.92;26.70;;;;;;;18.96;100.00;100053.56;5069308;28;20062;-51
2021/09/15 07:47:48;;;;;;;33.08;24.27;;;;;;;19.00;100.00;100060.38;5070556;28;20036;-49
2021/09/15 07:50:15;;;;;;;35.55;28.23;;;;;;;19.03;100.00;100062.81;5068585;28;20055;-51
2021/09/15 07:52:41;;;;;;;32.88;25.15;;;;;;;18.87;100.00;100031.09;5069335;28;20382;-50
2021/09/15 07:55:09;;;;;;;33.78;26.33;;;;;;;19.02;100.00;100063.78;5077309;28;20048;-50
2021/09/15 07:57:36;;;;;;;36.38;27.25;;;;;;;19.02;100.00;100061.09;5075270;28;20055;-50
2021/09/15 08:00:03;;;;;;;29.65;24.77;;;;;;;19.05;100.00;100069.72;5069434;28;20128;-51
2021/09/15 08:02:33;;;;;;;32.20;25.92;;;;;;;19.07;100.00;100069.56;5062899;28;20036;-50
2021/09/15 08:05:01;;;;;;;30.60;24.13;;;;;;;19.08;100.00;100066.75;5069904;28;20135;-49
2021/09/15 08:07:27;;;;;;;32.90;26.58;;;;;;;19.11;100.00;100068.34;5072441;28;20058;-50
2021/09/15 08:09:55;;;;;;;31.20;25.80;;;;;;;19.14;100.00;100065.38;5071618;28;20060;-52
2021/09/15 08:12:21;;;;;;;30.63;24.85;;;;;;;19.20;100.00;100065.69;5068780;28;20496;-50
2021/09/15 08:14:48;;;;;;;32.33;25.52;;;;;;;19.25;100.00;100063.44;5073765;28;20044;-51
2021/09/15 08:17:14;;;;;;;32.90;24.48;;;;;;;19.34;100.00;100066.31;5073034;28;20470;-51
2021/09/15 08:19:41;;;;;;;31.48;24.92;;;;;;;19.39;100.00;100072.97;5075755;28;20138;-51
2021/09/15 08:22:07;;;;;;;32.03;24.20;;;;;;;19.41;100.00;100073.69;5073410;28;20075;-52
2021/09/15 08:24:34;;;;;;;32.30;24.77;;;;;;;19.45;100.00;100076.97;5077402;28;20440;-52
2021/09/15 08:27:00;;;;;;;26.20;22.75;;;;;;;19.45;100.00;100075.13;5073234;28;20044;-51
2021/09/15 08:29:27;;;;;;;26.83;22.70;;;;;;;19.49;100.00;100086.44;5071773;28;20358;-51
2021/09/15 08:31:54;;;;;;;27.23;21.98;;;;;;;19.52;100.00;100080.81;5073590;28;20482;-49
2021/09/15 08:34:20;;;;;;;30.00;22.08;;;;;;;19.52;100.00;100075.44;5075466;28;20064;-50
2021/09/15 08:36:47;;;;;;;27.40;23.73;;;;;;;19.59;100.00;100079.28;5073572;28;20044;-50
2021/09/15 08:39:13;;;;;;;31.67;22.42;;;;;;;19.63;100.00;100080.72;5075255;28;20760;-51
2021/09/15 08:41:40;;;;;;;29.02;22.85;;;;;;;19.56;100.00;100058.94;5078557;28;20135;-50
2021/09/15 08:44:07;;;;;;;35.00;25.55;;;;;;;19.71;100.00;100082.72;5078319;28;20146;-50
2021/09/15 08:46:34;;;;;;;26.95;22.70;;;;;;;19.71;100.00;100078.19;5070331;28;20051;-51
2021/09/15 08:49:01;;;;;;;26.40;22.83;;;;;;;19.75;100.00;100073.38;5076862;28;20041;-52
2021/09/15 08:51:28;;;;;;;26.42;21.98;;;;;;;19.75;100.00;100076.94;5073715;28;20044;-51
2021/09/15 08:53:55;;;;;;;33.72;25.05;;;;;;;19.78;100.00;100084.72;5076279;28;20036;-51
2021/09/15 08:56:22;;;;;;;27.48;23.98;;;;;;;19.81;100.00;100073.69;5076163;28;20052;-52
2021/09/15 08:58:48;;;;;;;31.30;24.42;;;;;;;19.85;100.00;100088.53;5076546;28;20036;-52
2021/09/15 09:01:23;;;;;;;26.73;22.77;;;;;;;19.85;100.00;100085.84;5075867;28;20044;-51
2021/09/15 09:03:52;;;;;;;24.02;20.80;;;;;;;19.82;100.00;100082.63;5074625;28;20036;-52
2021/09/15 09:06:21;;;;;;;27.30;20.05;;;;;;;19.86;100.00;100078.63;5077883;28;20041;-51
2021/09/15 09:08:57;;;;;;;24.23;19.90;;;;;;;19.88;100.00;100077.50;5073427;28;20035;-51
2021/09/15 09:11:29;;;;;;;24.92;20.40;;;;;;;19.91;100.00;100071.88;5073282;28;20048;-52
2021/09/15 09:13:58;;;;;;;23.83;19.80;;;;;;;19.90;100.00;100077.38;5078850;28;20044;-52
2021/09/15 09:16:49;;;;;;;22.08;18.92;;;;;;;19.91;100.00;100071.00;5080796;28;20052;-52
2021/09/15 09:19:17;;;;;;;26.77;20.13;;;;;;;19.93;100.00;100075.28;5079955;28;20040;-52
2021/09/15 09:21:50;;;;;;;26.27;21.67;;;;;;;19.92;100.00;100078.94;5077608;28;20521;-51
2021/09/15 09:24:25;;;;;;;23.58;19.60;;;;;;;19.91;100.00;100065.63;5078255;28;20052;-52
2021/09/15 09:26:59;;;;;;;26.83;21.77;;;;;;;19.94;100.00;100066.22;5074410;28;20043;-51
2021/09/15 09:29:34;;;;;;;25.40;21.40;;;;;;;19.98;100.00;100077.53;5069465;28;20056;-52
2021/09/15 09:32:01;;;;;;;27.98;22.27;;;;;;;20.09;100.00;100073.88;5075908;28;20048;-52
2021/09/15 09:34:42;;;;;;;25.80;20.65;;;;;;;20.22;100.00;100067.22;5079631;28;20055;-52
2021/09/15 09:37:18;;;;;;;25.67;21.88;;;;;;;20.34;100.00;100065.22;5075299;28;20409;-52
2021/09/15 09:40:04;;;;;;;26.08;21.15;;;;;;;20.43;100.00;100058.19;5081110;28;20125;-51
2021/09/15 09:42:32;;;;;;;25.55;20.15;;;;;;;20.52;100.00;100066.25;5081225;28;20059;-51
2021/09/15 09:45:05;;;;;;;21.20;19.00;;;;;;;20.63;100.00;100062.53;5077516;28;20044;-52
2021/09/15 09:47:34;;;;;;;20.25;18.17;;;;;;;20.64;100.00;100064.22;5071995;28;20063;-51
2021/09/15 09:50:15;;;;;;;22.48;19.27;;;;;;;20.63;100.00;100062.53;5073622;28;20100;-51
2021/09/15 09:52:57;;;;;;;;;;;;;;;20.66;100.00;100056.88;5078441;28;20039;-51
2021/09/15 09:55:29;;;;;;;23.10;20.38;;;;;;;20.61;100.00;100057.31;5078496;28;19932;-52
2021/09/15 09:57:56;;;;;;;;;;;;;;;20.67;100.00;100053.19;5079349;28;20040;-50
2021/09/15 10:00:24;;;;;;;22.33;17.60;;;;;;;20.74;100.00;100051.63;5082901;28;19946;-51
2021/09/15 10:02:51;;;;;;;21.88;19.50;;;;;;;20.71;100.00;100054.59;5077984;28;20570;-49
2021/09/15 10:05:20;;;;;;;23.13;20.48;;;;;;;20.67;100.00;100053.19;5076361;28;20052;-51
2021/09/15 10:07:48;;;;;;;25.87;20.97;;;;;;;20.62;100.00;100048.22;5074927;28;20052;-51
2021/09/15 10:10:17;;;;;;;23.88;20.10;;;;;;;20.58;100.00;100054.06;5073222;28;20048;-51
2021/09/15 10:12:45;;;;;;;29.17;22.42;;;;;;;20.51;100.00;100048.41;5072975;28;20040;-51
2021/09/15 10:15:13;;;;;;;23.90;18.80;;;;;;;20.47;100.00;100048.81;5071276;28;20056;-50
2021/09/15 10:17:47;;;;;;;23.80;19.33;;;;;;;20.34;100.00;100046.41;5069985;28;20055;-50
2021/09/15 10:20:15;;;;;;;21.90;18.83;;;;;;;20.35;100.00;100056.16;5066794;28;20048;-50
2021/09/15 10:22:46;;;;;;;25.80;21.30;;;;;;;20.31;100.00;100042.16;5073073;28;20044;-52
2021/09/15 10:25:12;;;;;;;22.42;19.33;;;;;;;20.32;100.00;100048.38;5075387;28;20512;-51
2021/09/15 10:28:02;;;;;;;23.90;18.90;;;;;;;20.26;100.00;100040.91;5072707;28;20044;-53
2021/09/15 10:30:43;;;;;;;25.80;19.83;;;;;;;20.25;100.00;100036.50;5082213;28;20504;-51
2021/09/15 10:33:35;;;;;;;20.90;18.08;;;;;;;20.29;100.00;100038.78;5079691;28;20048;-50
2021/09/15 10:36:10;;;;;;;20.23;16.35;;;;;;;20.36;100.00;100043.56;5067856;28;20508;-51
2021/09/15 10:38:54;;;;;;;20.67;16.13;;;;;;;20.44;100.00;100036.53;5067361;28;20044;-51
2021/09/15 10:41:41;;;;;;;17.38;14.32;;;;;;;20.47;100.00;100033.53;5070340;28;20052;-51
2021/09/15 10:44:13;;;;;;;22.15;14.15;;;;;;;20.58;100.00;100038.78;5078538;28;20045;-51
2021/09/15 10:46:45;;;;;;;18.48;13.70;;;;;;;20.71;100.00;100037.59;5080451;28;20044;-53
2021/09/15 10:49:21;;;;;;;14.07;10.68;;;;;;;20.80;100.00;100034.03;5077107;28;20036;-51
2021/09/15 10:52:23;;;;;;;12.43;9.95;;;;;;;20.88;100.00;100035.00;5072485;28;20382;-52
2021/09/15 10:54:58;;;;;;;11.60;9.18;;;;;;;20.96;100.00;100037.81;5072465;28;20048;-51
2021/09/15 10:57:27;;;;;;;11.55;9.48;;;;;;;20.98;100.00;100035.81;5074937;28;20051;-51
2021/09/15 10:59:59;;;;;;;9.90;7.82;;;;;;;21.03;100.00;100040.78;5074993;28;20054;-51
2021/09/15 11:02:41;;;;;;;10.95;7.82;;;;;;;20.98;100.00;100034.97;5076393;28;20048;-50
2021/09/15 11:05:29;;;;;;;12.15;7.78;;;;;;;20.95;100.00;100030.72;5076782;28;20052;-51
2021/09/15 11:07:57;;;;;;;9.35;7.22;;;;;;;21.01;100.00;100038.22;5076287;28;20046;-51
2021/09/15 11:10:33;;;;;;;12.73;6.50;;;;;;;21.01;100.00;100029.28;5074022;28;20498;-51
2021/09/15 11:13:14;;;;;;;7.43;5.45;;;;;;;21.01;100.00;100023.91;5073983;28;20176;-51
2021/09/15 11:15:42;;;;;;;5.97;4.57;;;;;;;21.01;99.37;100029.28;5074152;28;20059;-53
2021/09/15 11:18:19;;;;;;;6.20;4.78;;;;;;;21.05;97.78;100019.94;5080629;28;20420;-49
2021/09/15 11:21:03;;;;;;;5.63;4.57;;;;;;;21.11;98.00;100019.31;5075800;28;20041;-50